Time;durP1;ratioP1;P1;durP2;ratioP2;P2;SDS_P1;SDS_P2;PMS_P1;PMS_P2;Temp;Humidity;BMP_temperature;BMP_pressure;BME280_temperature;BME280_humidity;BME280_pressure;Samples;Min_cycle;Max_cycle;Signal;HPM_P1;HPM_P2
2023/12/03 00:00:55;;;;;;;12.50;7.53;;;-4.00;99.90;;;;;;4918406;23;20041;-69
2023/12/03 00:03:23;;;;;;;12.77;7.47;;;-4.10;99.90;;;;;;4896961;29;20033;-69
2023/12/03 00:05:55;;;;;;;7.88;5.75;;;-4.10;99.90;;;;;;4881249;29;20525;-69
2023/12/03 00:08:27;;;;;;;12.52;7.70;;;-4.20;99.90;;;;;;4894357;29;20047;-69
2023/12/03 00:10:59;;;;;;;10.35;7.15;;;-4.20;99.90;;;;;;4879358;29;20052;-74
2023/12/03 00:13:31;;;;;;;13.98;8.05;;;-4.30;99.90;;;;;;4877894;29;20503;-69
2023/12/03 00:16:04;;;;;;;12.30;7.35;;;-4.30;99.90;;;;;;4878134;29;20049;-69
2023/12/03 00:18:31;;;;;;;13.48;7.80;;;-4.30;99.90;;;;;;4879415;29;20048;-69
2023/12/03 00:21:02;;;;;;;13.13;7.82;;;-4.30;99.90;;;;;;4880781;29;20053;-68
2023/12/03 00:23:34;;;;;;;12.38;8.23;;;-4.20;99.90;;;;;;4888999;29;20042;-68
2023/12/03 00:26:06;;;;;;;15.05;7.88;;;-4.10;99.90;;;;;;4879779;29;20033;-68
2023/12/03 00:28:34;;;;;;;13.00;7.95;;;-4.00;99.90;;;;;;4878452;29;20463;-69
2023/12/03 00:31:06;;;;;;;14.05;8.15;;;-4.00;99.90;;;;;;4878251;29;20080;-68
2023/12/03 00:33:38;;;;;;;12.63;7.80;;;-4.00;99.90;;;;;;4886342;29;20072;-68
2023/12/03 00:36:10;;;;;;;11.40;7.10;;;-3.90;99.90;;;;;;4878395;29;20052;-68
2023/12/03 00:38:37;;;;;;;13.70;8.10;;;-4.00;99.90;;;;;;4879941;29;20048;-68
2023/12/03 00:41:09;;;;;;;12.18;7.95;;;-4.00;99.90;;;;;;4875761;29;20414;-68
2023/12/03 00:43:41;;;;;;;15.50;8.82;;;-4.00;99.90;;;;;;4878040;29;20125;-68
2023/12/03 00:46:13;;;;;;;12.13;7.68;;;-4.00;99.90;;;;;;4875589;29;20795;-68
2023/12/03 00:48:46;;;;;;;14.98;8.88;;;-3.90;99.90;;;;;;4878443;29;20128;-68
2023/12/03 00:51:13;;;;;;;12.05;7.93;;;-3.90;99.90;;;;;;4879590;29;20496;-68
2023/12/03 00:53:45;;;;;;;13.25;8.48;;;-3.90;99.90;;;;;;4876344;29;20049;-68
2023/12/03 00:56:12;;;;;;;13.18;7.88;;;-3.90;99.90;;;;;;4877256;29;20097;-68
2023/12/03 00:58:44;;;;;;;13.65;7.75;;;-3.90;99.90;;;;;;4879115;29;20045;-68
2023/12/03 01:01:16;;;;;;;10.88;7.55;;;-4.00;99.90;;;;;;4877624;29;20409;-68
2023/12/03 01:03:48;;;;;;;13.27;7.95;;;-4.00;99.90;;;;;;4863747;29;20396;-68
2023/12/03 01:06:20;;;;;;;10.88;7.30;;;-4.00;99.90;;;;;;4893057;29;20533;-68
2023/12/03 01:08:52;;;;;;;12.63;8.02;;;-4.10;99.90;;;;;;4890299;29;20043;-68
2023/12/03 01:11:24;;;;;;;14.80;8.98;;;-4.10;99.90;;;;;;4874300;29;20072;-68
2023/12/03 01:13:56;;;;;;;13.40;8.20;;;-4.20;99.90;;;;;;4877463;29;20128;-68
2023/12/03 01:16:28;;;;;;;12.65;7.38;;;-4.10;99.90;;;;;;4876826;29;20488;-68
2023/12/03 01:18:55;;;;;;;11.02;6.97;;;-4.10;99.90;;;;;;4877215;29;20051;-68
2023/12/03 01:21:27;;;;;;;11.43;6.72;;;-4.20;99.90;;;;;;4877146;29;20048;-69
2023/12/03 01:23:58;;;;;;;14.85;8.13;;;-4.40;99.90;;;;;;4881557;29;20053;-68
2023/12/03 01:26:30;;;;;;;10.75;7.25;;;-4.40;99.90;;;;;;4879103;29;20105;-69
2023/12/03 01:29:02;;;;;;;13.43;8.13;;;-4.40;99.90;;;;;;4877403;29;20052;-68
2023/12/03 01:31:34;;;;;;;16.20;8.02;;;-4.40;99.90;;;;;;4879031;29;20501;-68
2023/12/03 01:34:06;;;;;;;17.10;8.32;;;-4.40;99.90;;;;;;4875592;29;20076;-68
2023/12/03 01:36:38;;;;;;;14.65;8.43;;;-4.40;99.90;;;;;;4893460;29;20056;-68
2023/12/03 01:39:10;;;;;;;14.45;8.35;;;-4.40;99.90;;;;;;4890970;29;20084;-68
2023/12/03 01:41:42;;;;;;;13.43;8.32;;;-4.30;99.90;;;;;;4873028;29;20048;-68
2023/12/03 01:44:14;;;;;;;16.92;9.35;;;-4.20;99.90;;;;;;4874748;29;20073;-68
2023/12/03 01:46:50;;;;;;;14.50;8.35;;;-4.10;99.90;;;;;;4892809;29;20045;-68
2023/12/03 01:49:18;;;;;;;14.00;7.70;;;-4.00;99.90;;;;;;4877671;29;20052;-69
2023/12/03 01:51:50;;;;;;;10.50;6.47;;;-4.00;99.90;;;;;;4893204;29;20044;-68
2023/12/03 01:54:17;;;;;;;13.60;8.20;;;-4.10;99.90;;;;;;4875665;29;20308;-68
2023/12/03 01:56:49;;;;;;;12.90;7.68;;;-4.10;99.90;;;;;;4877149;29;20045;-68
2023/12/03 01:59:23;;;;;;;12.93;8.27;;;-4.10;99.90;;;;;;4877227;29;20053;-68
2023/12/03 02:01:54;;;;;;;14.00;8.32;;;-4.10;99.90;;;;;;4876775;29;20037;-68
2023/12/03 02:04:22;;;;;;;12.77;7.53;;;-4.10;99.90;;;;;;4874361;29;20040;-68
2023/12/03 02:06:49;;;;;;;16.15;8.40;;;-4.10;99.90;;;;;;4892630;29;20033;-69
2023/12/03 02:09:21;;;;;;;12.82;8.13;;;-4.10;99.90;;;;;;4875687;29;20507;-68
2023/12/03 02:11:53;;;;;;;12.90;8.68;;;-4.10;99.90;;;;;;4876856;29;20063;-68
2023/12/03 02:14:25;;;;;;;14.15;7.57;;;-4.10;99.90;;;;;;4862233;29;20044;-68
2023/12/03 02:16:52;;;;;;;14.85;8.02;;;-4.00;99.90;;;;;;4892266;29;20782;-68
2023/12/03 02:19:24;;;;;;;15.27;8.68;;;-4.00;99.90;;;;;;4876332;29;20041;-68
2023/12/03 02:21:56;;;;;;;16.50;8.68;;;-3.90;99.90;;;;;;4891178;29;20056;-68
2023/12/03 02:24:28;;;;;;;15.55;8.43;;;-3.80;99.90;;;;;;4874449;29;20537;-68
2023/12/03 02:27:01;;;;;;;14.18;8.90;;;-3.80;99.90;;;;;;4874472;29;20124;-68
2023/12/03 02:29:33;;;;;;;11.98;7.18;;;-3.90;99.90;;;;;;4873467;29;20077;-68
2023/12/03 02:32:05;;;;;;;15.52;8.75;;;-4.00;99.90;;;;;;4872560;29;20510;-68
2023/12/03 02:34:36;;;;;;;13.88;8.88;;;-4.00;99.90;;;;;;4874474;29;20056;-68
2023/12/03 02:37:08;;;;;;;16.65;9.48;;;-4.00;99.90;;;;;;4891965;29;20060;-68
2023/12/03 02:39:40;;;;;;;15.30;8.75;;;-4.00;99.90;;;;;;4877297;29;20072;-68
2023/12/03 02:42:12;;;;;;;15.45;8.88;;;-4.00;99.90;;;;;;4891354;29;20500;-68
2023/12/03 02:44:44;;;;;;;14.40;8.95;;;-4.00;99.90;;;;;;4891601;29;20552;-68
2023/12/03 02:47:16;;;;;;;19.08;9.60;;;-4.00;99.90;;;;;;4877307;29;20052;-68
2023/12/03 02:49:43;;;;;;;14.68;8.70;;;-4.00;99.90;;;;;;4875977;29;20433;-68
2023/12/03 02:52:15;;;;;;;16.15;9.48;;;-4.00;99.90;;;;;;4874792;29;20077;-68
2023/12/03 02:54:41;;;;;;;15.23;9.05;;;-4.00;99.90;;;;;;4876507;29;20047;-68
2023/12/03 02:57:17;;;;;;;13.73;8.25;;;-3.90;99.90;;;;;;4873643;29;20049;-68
2023/12/03 02:59:49;;;;;;;15.75;8.40;;;-3.90;99.90;;;;;;4875540;29;20506;-68
2023/12/03 03:02:16;;;;;;;14.90;8.60;;;-3.90;99.90;;;;;;4891247;29;20534;-68
2023/12/03 03:04:43;;;;;;;15.02;9.13;;;-4.00;99.90;;;;;;4873952;29;20040;-67
2023/12/03 03:07:14;;;;;;;15.60;9.27;;;-4.00;99.90;;;;;;4874088;29;20065;-68
2023/12/03 03:09:46;;;;;;;14.63;8.80;;;-4.00;99.90;;;;;;4874419;29;20121;-69
2023/12/03 03:12:13;;;;;;;15.25;9.20;;;-3.90;99.90;;;;;;4875492;29;20425;-68
2023/12/03 03:14:45;;;;;;;17.83;9.63;;;-3.80;99.90;;;;;;4877238;29;20064;-68
2023/12/03 03:17:17;;;;;;;15.15;8.93;;;-3.70;99.90;;;;;;4879823;29;20041;-68
2023/12/03 03:19:49;;;;;;;16.33;9.57;;;-3.70;99.90;;;;;;4877357;29;20051;-68
2023/12/03 03:22:21;;;;;;;16.23;9.98;;;-3.70;99.90;;;;;;4871323;29;20803;-68
2023/12/03 03:24:48;;;;;;;14.82;8.68;;;-3.60;99.90;;;;;;4875884;29;20051;-68
2023/12/03 03:27:20;;;;;;;14.10;8.98;;;-3.60;99.90;;;;;;4875079;29;20049;-68
2023/12/03 03:29:52;;;;;;;13.52;8.77;;;-3.60;99.90;;;;;;4873715;29;20073;-68
2023/12/03 03:32:24;;;;;;;13.95;8.55;;;-3.70;99.90;;;;;;4879491;29;20044;-68
2023/12/03 03:34:56;;;;;;;12.70;8.02;;;-3.80;99.90;;;;;;4894642;29;20055;-68
2023/12/03 03:37:28;;;;;;;13.38;8.40;;;-3.80;99.90;;;;;;4880272;29;20060;-68
2023/12/03 03:39:59;;;;;;;12.55;7.63;;;-3.90;99.90;;;;;;4878539;29;20055;-68
2023/12/03 03:42:26;;;;;;;13.07;7.65;;;-4.10;99.90;;;;;;4880374;29;20127;-68
2023/12/03 03:44:53;;;;;;;13.57;8.07;;;-4.00;99.90;;;;;;4895120;29;20045;-68
2023/12/03 03:47:25;;;;;;;14.65;9.52;;;-4.10;99.90;;;;;;4879249;29;20048;-68
2023/12/03 03:49:57;;;;;;;13.60;7.70;;;-4.10;99.90;;;;;;4876915;29;20041;-69
2023/12/03 03:52:24;;;;;;;13.23;8.43;;;-3.90;99.90;;;;;;4878503;29;20104;-68
2023/12/03 03:54:56;;;;;;;15.02;9.05;;;-4.00;99.90;;;;;;4879705;29;20068;-68
2023/12/03 03:57:28;;;;;;;14.77;8.77;;;-3.90;99.90;;;;;;4880493;29;20048;-68
2023/12/03 04:00:00;;;;;;;15.13;9.20;;;-3.90;99.90;;;;;;4893210;29;20049;-69
2023/12/03 04:02:38;;;;;;;13.23;8.07;;;-3.80;99.90;;;;;;4892638;29;20060;-69
2023/12/03 04:05:05;;;;;;;14.75;8.43;;;-3.90;99.90;;;;;;4877966;29;20574;-69
2023/12/03 04:07:37;;;;;;;15.77;9.02;;;-3.90;99.90;;;;;;4891996;29;20045;-68
2023/12/03 04:10:10;;;;;;;11.48;7.93;;;-4.00;99.90;;;;;;4877599;29;20040;-68
2023/12/03 04:12:42;;;;;;;14.25;8.18;;;-3.90;99.90;;;;;;4893695;29;20590;-68
2023/12/03 04:15:09;;;;;;;15.13;8.95;;;-3.90;99.90;;;;;;4878286;29;20045;-70
2023/12/03 04:17:41;;;;;;;15.77;8.98;;;-3.90;99.90;;;;;;4877849;29;20072;-69
2023/12/03 04:20:13;;;;;;;15.15;8.95;;;-4.00;99.90;;;;;;4879990;29;20037;-69
2023/12/03 04:22:45;;;;;;;13.68;8.63;;;-4.00;99.90;;;;;;4879183;29;20041;-69
2023/12/03 04:25:17;;;;;;;15.43;9.30;;;-4.10;99.90;;;;;;4877648;29;20080;-69
2023/12/03 04:27:49;;;;;;;15.15;8.90;;;-4.10;99.90;;;;;;4879405;29;20120;-69
2023/12/03 04:30:21;;;;;;;16.27;8.63;;;-4.10;99.90;;;;;;4878996;29;20055;-69
2023/12/03 04:32:53;;;;;;;14.45;8.15;;;-4.20;99.90;;;;;;4877074;29;20052;-69
2023/12/03 04:35:25;;;;;;;12.50;8.52;;;-4.20;99.90;;;;;;4875671;29;20244;-69
2023/12/03 04:37:56;;;;;;;16.08;9.60;;;-4.20;99.90;;;;;;4880264;29;20048;-69
2023/12/03 04:40:28;;;;;;;15.57;8.90;;;-4.20;99.90;;;;;;4863608;29;20041;-69
2023/12/03 04:42:55;;;;;;;13.77;9.18;;;-4.30;99.90;;;;;;4878547;29;20585;-69
2023/12/03 04:45:27;;;;;;;13.35;8.27;;;-4.30;99.90;;;;;;4875307;29;20042;-69
2023/12/03 04:47:54;;;;;;;15.55;9.25;;;-4.30;99.90;;;;;;4877810;29;20111;-69
2023/12/03 04:50:25;;;;;;;14.63;8.40;;;-4.40;99.90;;;;;;4893224;29;20046;-69
2023/12/03 04:52:57;;;;;;;12.60;7.90;;;-4.40;99.90;;;;;;4877141;29;20510;-69
2023/12/03 04:55:29;;;;;;;12.40;7.57;;;-4.40;99.90;;;;;;4878691;29;20052;-69
2023/12/03 04:57:56;;;;;;;15.43;8.57;;;-4.30;99.90;;;;;;4876340;29;20097;-69
2023/12/03 05:00:23;;;;;;;15.18;9.27;;;-4.30;99.90;;;;;;4878845;29;20041;-69
2023/12/03 05:02:55;;;;;;;15.73;9.02;;;-4.30;99.90;;;;;;4878655;29;20399;-69
2023/12/03 05:05:26;;;;;;;15.98;9.40;;;-4.20;99.90;;;;;;4878298;29;20518;-69
2023/12/03 05:07:58;;;;;;;16.45;9.02;;;-4.20;99.90;;;;;;4893831;29;20140;-69
2023/12/03 05:10:26;;;;;;;17.35;10.25;;;-4.00;99.90;;;;;;4872459;29;20049;-69
2023/12/03 05:12:57;;;;;;;15.15;9.07;;;-4.00;99.90;;;;;;4878593;29;20048;-69
2023/12/03 05:15:24;;;;;;;15.70;9.48;;;-4.00;99.90;;;;;;4877582;29;20053;-69
2023/12/03 05:17:56;;;;;;;14.85;9.45;;;-3.90;99.90;;;;;;4878506;29;20093;-69
2023/12/03 05:20:28;;;;;;;17.25;10.13;;;-4.10;99.90;;;;;;4879073;29;20053;-69
2023/12/03 05:23:00;;;;;;;17.80;9.80;;;-4.10;99.90;;;;;;4879021;29;20049;-69
2023/12/03 05:25:27;;;;;;;18.50;10.45;;;-4.10;99.90;;;;;;4878314;29;20045;-69
2023/12/03 05:27:59;;;;;;;18.77;9.80;;;-4.20;99.90;;;;;;4863723;29;20105;-69
2023/12/03 05:30:31;;;;;;;20.20;10.32;;;-4.20;99.90;;;;;;4863074;29;20045;-69
2023/12/03 05:33:03;;;;;;;17.40;10.27;;;-4.30;99.90;;;;;;4877991;29;20045;-69
2023/12/03 05:35:35;;;;;;;17.75;10.30;;;-4.30;99.90;;;;;;4876632;29;20136;-69
2023/12/03 05:38:06;;;;;;;17.58;9.95;;;-4.30;99.90;;;;;;4878697;29;20049;-69
2023/12/03 05:40:38;;;;;;;18.35;10.55;;;-4.30;99.90;;;;;;4874525;29;20060;-69
2023/12/03 05:43:10;;;;;;;16.95;9.60;;;-4.30;99.90;;;;;;4876964;29;20049;-69
2023/12/03 05:45:42;;;;;;;14.70;9.25;;;-4.30;99.90;;;;;;4876344;29;20049;-69
2023/12/03 05:48:15;;;;;;;18.52;10.43;;;-4.30;99.90;;;;;;4876692;29;20471;-69
2023/12/03 05:50:47;;;;;;;13.32;8.10;;;-4.40;99.90;;;;;;4877372;29;20506;-69
2023/12/03 05:53:19;;;;;;;17.13;9.57;;;-4.40;99.90;;;;;;4876983;29;20060;-69
2023/12/03 05:55:45;;;;;;;16.98;10.20;;;-4.40;99.90;;;;;;4875248;29;20064;-69
2023/12/03 05:58:17;;;;;;;15.70;9.65;;;-4.40;99.90;;;;;;4874187;29;20045;-69
2023/12/03 06:00:49;;;;;;;19.90;10.13;;;-4.40;99.90;;;;;;4871479;29;20075;-70
2023/12/03 06:03:21;;;;;;;15.55;9.57;;;-4.50;99.90;;;;;;4894340;23;20123;-64
2023/12/03 06:05:53;;;;;;;15.43;9.57;;;-4.50;99.90;;;;;;4896486;29;20048;-64
2023/12/03 06:08:24;;;;;;;15.90;9.35;;;-4.50;99.90;;;;;;4896239;29;20127;-64
2023/12/03 06:10:56;;;;;;;21.27;12.75;;;-4.50;99.90;;;;;;4894834;29;20047;-64
2023/12/03 06:13:23;;;;;;;23.17;12.32;;;-4.50;99.90;;;;;;4896044;29;20068;-64
2023/12/03 06:15:55;;;;;;;19.40;11.65;;;-4.50;99.90;;;;;;4894998;29;20413;-64
2023/12/03 06:18:27;;;;;;;18.77;11.38;;;-4.50;99.90;;;;;;4894014;29;20051;-64
2023/12/03 06:20:59;;;;;;;20.98;12.25;;;-4.40;99.90;;;;;;4892088;29;20119;-63
2023/12/03 06:23:31;;;;;;;19.60;11.27;;;-4.40;99.90;;;;;;4877708;29;20059;-64
2023/12/03 06:25:57;;;;;;;21.90;12.65;;;-4.30;99.90;;;;;;4891740;29;20042;-64
2023/12/03 06:28:29;;;;;;;21.50;13.27;;;-4.40;99.90;;;;;;4892782;29;20048;-64
2023/12/03 06:30:57;;;;;;;20.83;13.07;;;-4.50;99.90;;;;;;4884479;29;20047;-64
2023/12/03 06:33:24;;;;;;;18.63;11.65;;;-4.60;99.90;;;;;;4892970;29;20041;-64
2023/12/03 06:35:52;;;;;;;17.77;9.57;;;-4.60;99.90;;;;;;4895946;29;20036;-64
2023/12/03 06:38:25;;;;;;;16.15;9.90;;;-4.70;99.90;;;;;;4893408;29;20040;-64
2023/12/03 06:40:57;;;;;;;14.32;8.40;;;-4.70;99.90;;;;;;4894099;29;20517;-64
2023/12/03 06:43:23;;;;;;;16.63;9.20;;;-4.60;99.90;;;;;;4892460;29;20044;-64
2023/12/03 06:45:57;;;;;;;15.43;8.60;;;-4.60;99.90;;;;;;4909423;29;20588;-64
2023/12/03 06:48:29;;;;;;;17.25;9.35;;;-4.60;99.90;;;;;;4897691;29;20051;-64
2023/12/03 06:51:01;;;;;;;13.40;8.18;;;-4.50;99.90;;;;;;4889870;29;20051;-64
2023/12/03 06:53:33;;;;;;;14.57;8.95;;;-4.40;99.90;;;;;;4891978;29;20061;-64
2023/12/03 06:56:08;;;;;;;14.20;8.10;;;-4.40;99.90;;;;;;4890988;29;20055;-64
2023/12/03 06:58:40;;;;;;;14.10;8.18;;;-4.30;99.90;;;;;;4895228;29;20569;-64
2023/12/03 07:01:13;;;;;;;14.45;8.10;;;-4.30;99.90;;;;;;4894200;29;20390;-64
2023/12/03 07:03:45;;;;;;;13.07;7.70;;;-4.40;99.90;;;;;;4894273;29;20039;-64
2023/12/03 07:06:17;;;;;;;14.60;8.20;;;-4.40;99.90;;;;;;4893251;29;20128;-64
2023/12/03 07:08:49;;;;;;;15.65;8.02;;;-4.40;99.90;;;;;;4896235;29;20032;-64
2023/12/03 07:11:21;;;;;;;12.55;7.65;;;-4.40;99.90;;;;;;4894245;29;20044;-64
2023/12/03 07:13:48;;;;;;;10.73;7.60;;;-4.30;99.90;;;;;;4878872;29;20072;-64
2023/12/03 07:16:15;;;;;;;15.45;8.38;;;-4.30;99.90;;;;;;4885885;29;20055;-64
2023/12/03 07:18:47;;;;;;;12.75;7.32;;;-4.30;99.90;;;;;;4894352;29;20045;-64
2023/12/03 07:21:19;;;;;;;14.02;8.27;;;-4.30;99.90;;;;;;4892305;29;20059;-64
2023/12/03 07:23:51;;;;;;;13.15;7.53;;;-4.20;99.90;;;;;;4889435;29;20520;-64
2023/12/03 07:26:23;;;;;;;13.40;8.23;;;-4.20;99.90;;;;;;4895503;29;20059;-64
2023/12/03 07:28:50;;;;;;;13.05;7.65;;;-4.20;99.90;;;;;;4893591;29;20124;-64
2023/12/03 07:31:17;;;;;;;13.20;8.05;;;-4.20;99.90;;;;;;4895344;29;20470;-64
2023/12/03 07:33:49;;;;;;;12.98;7.90;;;-4.30;99.90;;;;;;4894416;29;20040;-64
2023/12/03 07:36:21;;;;;;;15.18;9.02;;;-4.30;99.90;;;;;;4893734;29;20041;-63
2023/12/03 07:38:53;;;;;;;13.90;8.20;;;-4.30;99.90;;;;;;4892025;29;20036;-64
2023/12/03 07:41:24;;;;;;;14.27;8.55;;;-4.30;99.90;;;;;;4892742;29;20119;-63
2023/12/03 07:43:56;;;;;;;14.40;8.23;;;-4.30;99.90;;;;;;4892665;29;20037;-64
2023/12/03 07:46:23;;;;;;;13.43;8.90;;;-4.30;99.90;;;;;;4890548;29;20541;-64
2023/12/03 07:48:55;;;;;;;12.32;7.68;;;-4.30;99.90;;;;;;4893813;29;20053;-64
2023/12/03 07:51:22;;;;;;;14.88;8.75;;;-4.40;99.90;;;;;;4893823;29;20048;-64
2023/12/03 07:53:54;;;;;;;13.23;7.97;;;-4.40;99.90;;;;;;4908088;29;20045;-64
2023/12/03 07:56:35;;;;;;;15.25;9.43;;;-4.40;99.90;;;;;;4894551;29;20106;-64
2023/12/03 07:59:08;;;;;;;11.68;7.15;;;-4.40;99.90;;;;;;4891285;29;20533;-64
2023/12/03 08:01:40;;;;;;;13.25;8.02;;;-4.40;99.90;;;;;;4889166;29;20044;-64
2023/12/03 08:04:12;;;;;;;14.45;7.75;;;-4.40;99.90;;;;;;4890474;29;20478;-64
2023/12/03 08:06:44;;;;;;;14.43;7.22;;;-4.40;99.90;;;;;;4882644;29;20053;-64
2023/12/03 08:09:16;;;;;;;13.88;8.35;;;-4.30;99.90;;;;;;4890796;29;20068;-64
2023/12/03 08:11:48;;;;;;;12.77;7.70;;;-4.20;99.90;;;;;;4879794;29;20135;-64
2023/12/03 08:14:19;;;;;;;12.40;7.95;;;-4.00;99.90;;;;;;4893527;29;20514;-64
2023/12/03 08:16:46;;;;;;;11.70;7.47;;;-4.00;99.90;;;;;;4891771;29;20036;-64
2023/12/03 08:19:13;;;;;;;12.45;8.00;;;-4.00;99.90;;;;;;4895903;29;20052;-64
2023/12/03 08:21:47;;;;;;;13.15;8.07;;;-4.00;99.90;;;;;;4895436;29;20044;-65
2023/12/03 08:24:18;;;;;;;;;;;-4.00;99.90;;;;;;4896370;29;20041;-64
2023/12/03 08:26:50;;;;;;;13.05;7.68;;;-3.90;99.90;;;;;;4895002;29;19927;-64
2023/12/03 08:29:22;;;;;;;14.40;7.95;;;-3.80;99.90;;;;;;4895387;29;20064;-63
2023/12/03 08:31:54;;;;;;;13.55;8.38;;;-3.80;99.90;;;;;;4893000;29;20065;-63
2023/12/03 08:34:28;;;;;;;15.57;9.02;;;-3.80;99.90;;;;;;4912336;29;21023;-63
2023/12/03 08:37:00;;;;;;;16.13;9.00;;;-3.90;99.90;;;;;;4896111;29;20063;-64
2023/12/03 08:39:32;;;;;;;18.30;9.52;;;-3.90;99.90;;;;;;4887966;29;20573;-64
2023/12/03 08:42:04;;;;;;;15.52;9.32;;;-3.90;99.90;;;;;;4893697;29;20100;-64
2023/12/03 08:44:36;;;;;;;15.50;9.68;;;-3.90;99.90;;;;;;4887751;29;20044;-64
2023/12/03 08:47:08;;;;;;;18.13;9.80;;;-3.90;99.90;;;;;;4894858;29;20075;-63
2023/12/03 08:49:36;;;;;;;15.05;9.32;;;-3.80;99.90;;;;;;4893409;29;20127;-63
2023/12/03 08:52:08;;;;;;;16.27;9.38;;;-3.70;99.90;;;;;;4891384;29;20054;-63
2023/12/03 08:54:40;;;;;;;18.73;11.57;;;-3.60;99.90;;;;;;4893242;29;20060;-64
2023/12/03 08:57:09;;;;;;;15.75;8.75;;;-3.50;99.90;;;;;;4896252;29;20104;-64
2023/12/03 08:59:40;;;;;;;16.67;9.68;;;-3.60;99.90;;;;;;4894169;29;20049;-63
2023/12/03 09:02:12;;;;;;;16.40;10.73;;;-3.70;99.90;;;;;;4890105;29;20045;-64
2023/12/03 09:04:44;;;;;;;17.13;10.90;;;-3.70;99.90;;;;;;4887482;29;20068;-64
2023/12/03 09:07:16;;;;;;;19.33;10.60;;;-3.70;99.90;;;;;;4895773;29;20059;-64
2023/12/03 09:09:48;;;;;;;17.42;11.48;;;-3.70;99.90;;;;;;4885107;29;20037;-64
2023/12/03 09:12:17;;;;;;;22.17;12.48;;;-3.70;99.90;;;;;;4895245;29;20076;-64
2023/12/03 09:14:49;;;;;;;17.38;10.48;;;-3.60;99.90;;;;;;4895788;29;20048;-64
2023/12/03 09:17:21;;;;;;;16.60;10.80;;;-3.50;99.90;;;;;;4908238;29;20072;-64
2023/12/03 09:19:49;;;;;;;17.40;10.88;;;-3.30;99.90;;;;;;4891117;29;20413;-64
2023/12/03 09:22:21;;;;;;;21.58;11.98;;;-3.20;99.90;;;;;;4888969;29;20132;-64
2023/12/03 09:24:53;;;;;;;20.50;11.85;;;-3.10;99.90;;;;;;4893084;29;20063;-64
2023/12/03 09:27:25;;;;;;;19.92;11.38;;;-3.00;99.90;;;;;;4898388;29;20084;-64
2023/12/03 09:29:57;;;;;;;19.83;11.73;;;-2.90;99.90;;;;;;4883349;29;20052;-64
2023/12/03 09:32:29;;;;;;;18.30;10.88;;;-2.90;99.90;;;;;;4893101;29;20047;-64
2023/12/03 09:35:01;;;;;;;17.20;11.32;;;-2.90;99.90;;;;;;4894243;29;20065;-64
2023/12/03 09:37:28;;;;;;;20.15;10.68;;;-2.80;99.90;;;;;;4891730;29;20037;-63
2023/12/03 09:39:56;;;;;;;17.63;10.48;;;-2.80;99.90;;;;;;4892257;29;20128;-64
2023/12/03 09:42:31;;;;;;;18.30;11.00;;;-2.80;99.90;;;;;;4896129;29;20040;-64
2023/12/03 09:45:04;;;;;;;18.25;10.55;;;-2.70;99.90;;;;;;4887487;29;20056;-65
2023/12/03 09:47:37;;;;;;;16.38;10.55;;;-2.70;99.90;;;;;;4894443;29;20064;-64
2023/12/03 09:50:05;;;;;;;19.17;11.23;;;-2.60;99.90;;;;;;4896453;29;20045;-65
2023/12/03 09:52:39;;;;;;;17.53;9.43;;;-2.40;99.90;;;;;;4890639;29;20040;-65
2023/12/03 09:55:12;;;;;;;19.98;11.95;;;-2.00;99.90;;;;;;4869874;29;20062;-64
2023/12/03 09:57:45;;;;;;;19.95;12.48;;;-2.00;99.90;;;;;;4894627;29;20062;-64
2023/12/03 10:00:18;;;;;;;25.00;15.38;;;-2.10;99.90;;;;;;4892328;29;20059;-64
2023/12/03 10:02:49;;;;;;;20.58;13.65;;;-2.20;99.90;;;;;;4888848;29;20135;-64
2023/12/03 10:05:21;;;;;;;24.30;14.15;;;-2.30;99.90;;;;;;4891687;29;20525;-64
2023/12/03 10:07:54;;;;;;;21.95;14.20;;;-2.40;99.90;;;;;;4892124;29;20062;-64
2023/12/03 10:10:31;;;;;;;23.80;14.85;;;-2.50;99.90;;;;;;4902552;29;20399;-64
2023/12/03 10:12:59;;;;;;;29.95;16.65;;;-2.60;99.90;;;;;;4893601;29;20449;-64
2023/12/03 10:15:31;;;;;;;27.17;15.80;;;-2.70;99.90;;;;;;4890978;29;20580;-64
2023/12/03 10:18:03;;;;;;;27.92;14.70;;;-2.90;99.90;;;;;;4908290;29;20300;-64
2023/12/03 10:20:30;;;;;;;28.42;15.48;;;-2.90;99.90;;;;;;4893605;29;20124;-64
2023/12/03 10:23:03;;;;;;;27.65;15.93;;;-2.90;99.90;;;;;;4878599;29;20049;-64
2023/12/03 10:25:36;;;;;;;32.38;17.40;;;-2.60;99.90;;;;;;4890474;29;20124;-64
2023/12/03 10:28:09;;;;;;;30.33;15.98;;;-2.50;99.90;;;;;;4906881;29;20417;-64
2023/12/03 10:30:41;;;;;;;24.33;14.70;;;-2.40;99.90;;;;;;4906651;29;20432;-64
2023/12/03 10:33:15;;;;;;;26.25;16.33;;;-2.50;99.90;;;;;;4893642;29;20053;-64
2023/12/03 10:35:47;;;;;;;25.67;15.95;;;-2.70;99.90;;;;;;4893010;29;20045;-64
2023/12/03 10:38:16;;;;;;;22.02;14.52;;;-2.90;99.90;;;;;;4892011;29;20049;-64
2023/12/03 10:40:49;;;;;;;25.83;16.95;;;-3.10;99.90;;;;;;4892877;29;20048;-64
2023/12/03 10:43:15;;;;;;;27.15;16.08;;;-3.10;99.90;;;;;;4889719;29;20044;-64
2023/12/03 10:45:53;;;;;;;30.80;16.75;;;-3.10;99.90;;;;;;4908736;29;20045;-64
2023/12/03 10:48:27;;;;;;;26.33;15.43;;;-3.00;99.90;;;;;;4897216;29;20045;-64
2023/12/03 10:51:00;;;;;;;27.17;16.23;;;-3.10;99.90;;;;;;4892941;29;20037;-64
2023/12/03 10:53:33;;;;;;;24.98;14.93;;;-3.00;99.90;;;;;;4894052;29;20058;-63
2023/12/03 10:56:06;;;;;;;23.07;14.30;;;-3.00;99.90;;;;;;4891896;29;20048;-63
2023/12/03 10:58:37;;;;;;;23.25;13.55;;;-3.00;99.90;;;;;;4888795;29;20040;-64
2023/12/03 11:01:22;;;;;;;20.98;13.13;;;-2.90;99.90;;;;;;4893999;29;20049;-64
2023/12/03 11:03:56;;;;;;;21.33;12.77;;;-2.90;99.90;;;;;;4891704;29;20055;-64
2023/12/03 11:06:28;;;;;;;;;;;-2.90;99.90;;;;;;4895187;29;20411;-64
2023/12/03 11:09:01;;;;;;;20.90;11.48;;;-2.80;99.90;;;;;;4892446;29;20281;-64
2023/12/03 11:11:29;;;;;;;16.90;9.73;;;-2.70;99.90;;;;;;4895451;29;20051;-64
2023/12/03 11:14:01;;;;;;;17.23;10.55;;;-2.70;99.90;;;;;;4884553;29;20055;-63
2023/12/03 11:16:47;;;;;;;16.65;10.52;;;-2.80;99.90;;;;;;4881495;29;20057;-64
2023/12/03 11:19:17;;;;;;;18.35;10.02;;;-2.80;99.90;;;;;;4892650;29;20076;-64
2023/12/03 11:22:08;;;;;;;17.42;9.07;;;-2.70;99.90;;;;;;4893870;29;20055;-64
2023/12/03 11:25:01;;;;;;;17.35;10.38;;;-2.60;99.90;;;;;;4892023;29;20509;-64
2023/12/03 11:27:33;;;;;;;17.73;10.35;;;-2.40;99.90;;;;;;4888432;29;20045;-64
2023/12/03 11:30:05;;;;;;;20.73;12.18;;;-2.20;99.90;;;;;;4892485;29;20517;-63
2023/12/03 11:32:37;;;;;;;17.02;11.02;;;-2.00;99.90;;;;;;4888391;29;20136;-63
2023/12/03 11:35:14;;;;;;;18.17;10.90;;;-2.00;99.90;;;;;;4892998;29;20421;-64
2023/12/03 11:37:43;;;;;;;16.25;10.00;;;-1.80;99.90;;;;;;4894439;29;20057;-64
2023/12/03 11:40:33;;;;;;;13.95;8.77;;;-1.80;99.90;;;;;;4888412;29;20110;-64
2023/12/03 11:43:00;;;;;;;13.63;8.70;;;-1.70;99.90;;;;;;4891392;29;20045;-63
2023/12/03 11:45:33;;;;;;;17.20;9.77;;;-1.60;99.90;;;;;;4893729;29;20057;-63
2023/12/03 11:48:11;;;;;;;14.02;8.85;;;-1.60;99.90;;;;;;4891688;29;20053;-64
2023/12/03 11:50:44;;;;;;;13.07;8.93;;;-1.70;99.90;;;;;;4885384;29;20139;-63
2023/12/03 11:53:17;;;;;;;16.95;10.98;;;-1.60;99.90;;;;;;4910351;29;20104;-63
2023/12/03 11:55:49;;;;;;;17.00;10.45;;;-1.50;99.90;;;;;;4890889;29;20037;-64
2023/12/03 11:58:16;;;;;;;18.42;11.82;;;-1.50;99.90;;;;;;4896979;29;20051;-64
2023/12/03 12:00:48;;;;;;;16.88;10.18;;;-1.50;99.90;;;;;;4892930;29;20052;-64
2023/12/03 12:03:20;;;;;;;18.40;12.68;;;-1.30;99.90;;;;;;4892924;29;20135;-64
2023/12/03 12:05:49;;;;;;;25.40;14.95;;;-1.20;99.90;;;;;;4910113;23;20522;-64
2023/12/03 12:08:21;;;;;;;23.25;14.52;;;-1.20;99.90;;;;;;4890379;29;20040;-63
2023/12/03 12:10:50;;;;;;;23.63;14.68;;;-1.10;99.90;;;;;;4897728;29;20585;-63
2023/12/03 12:13:23;;;;;;;20.00;12.63;;;-1.00;99.90;;;;;;4884678;29;20036;-63
2023/12/03 12:15:50;;;;;;;19.52;12.60;;;-0.90;99.90;;;;;;4884343;29;20455;-63
2023/12/03 12:18:23;;;;;;;26.17;17.70;;;-0.90;99.90;;;;;;4888911;29;20513;-63
2023/12/03 12:20:50;;;;;;;31.20;22.15;;;-1.10;99.90;;;;;;4890300;29;20037;-63
2023/12/03 12:23:22;;;;;;;23.42;14.70;;;-1.20;99.90;;;;;;4889813;29;20048;-63
2023/12/03 12:25:49;;;;;;;21.80;13.98;;;-1.10;99.90;;;;;;4888452;29;20450;-63
2023/12/03 12:28:21;;;;;;;29.05;19.27;;;-1.00;99.90;;;;;;4888032;29;20037;-67
2023/12/03 12:30:55;;;;;;;25.90;17.75;;;-1.00;99.90;;;;;;4896472;29;20556;-63
2023/12/03 12:33:26;;;;;;;;;;;-1.00;99.90;;;;;;4888982;29;20052;-63
2023/12/03 12:36:01;;;;;;;24.23;14.25;;;-0.90;99.90;;;;;;4894733;29;19974;-64
2023/12/03 12:38:43;;;;;;;29.55;16.63;;;-1.00;99.90;;;;;;4888850;29;20117;-64
2023/12/03 12:41:15;;;;;;;39.05;22.23;;;-0.90;99.90;;;;;;4882994;29;20044;-64
2023/12/03 12:43:58;;;;;;;39.85;21.70;;;-0.90;99.90;;;;;;4886068;29;20056;-64
2023/12/03 12:46:31;;;;;;;118.80;52.03;;;-0.80;99.90;;;;;;4890185;29;20038;-64
2023/12/03 12:49:13;;;;;;;64.40;31.10;;;-0.70;99.90;;;;;;4902363;29;20298;-64
2023/12/03 12:51:45;;;;;;;42.47;21.92;;;-0.80;99.90;;;;;;4891297;29;20326;-64
2023/12/03 12:54:17;;;;;;;41.17;20.88;;;-0.70;99.90;;;;;;4888739;29;20048;-64